< < Back
Terminal Aerodrome Forecast


Current Version              Previous Versions:   1  2  3  4  5  6  7  8  9  

Terminal Aerodrome Forecast

633
FTUS44 KHUN 251720
TAFHSV
TAF
KHSV 251720Z 2518/2618 VRB04KT P6SM SCT060
     FM260000 VRB03KT P6SM SKC
     FM261500 24007KT P6SM SCT060=

Latest METAR

295
SAUS80 KWBC 252000 RRA
MTRHSV
METAR KHSV 251953Z 31008KT 10SM SCT075 37/13 A3000 RMK AO2 SLP148
T03720128


USA.gov is the U.S. government's official web portal to all federal, state and local government web resources and services.